sensor_id;sensor_type;location;lat;lon;timestamp;P1;durP1;ratioP1;P2;durP2;ratioP2
13303;SDS011;6720;51.958;4.540;2022-09-09T00:02:24;9.40;;;7.30;;
13303;SDS011;6720;51.958;4.540;2022-09-09T00:04:59;9.83;;;7.80;;
13303;SDS011;6720;51.958;4.540;2022-09-09T00:07:41;12.93;;;7.43;;
13303;SDS011;6720;51.958;4.540;2022-09-09T00:10:34;11.30;;;8.10;;
13303;SDS011;6720;51.958;4.540;2022-09-09T00:13:22;11.83;;;7.80;;
13303;SDS011;6720;51.958;4.540;2022-09-09T00:18:50;11.33;;;8.80;;
13303;SDS011;6720;51.958;4.540;2022-09-09T00:21:22;11.50;;;8.47;;
13303;SDS011;6720;51.958;4.540;2022-09-09T00:23:54;10.27;;;8.80;;
13303;SDS011;6720;51.958;4.540;2022-09-09T00:31:37;12.57;;;9.60;;
13303;SDS011;6720;51.958;4.540;2022-09-09T00:34:13;11.47;;;9.13;;
13303;SDS011;6720;51.958;4.540;2022-09-09T00:36:42;11.47;;;9.13;;
13303;SDS011;6720;51.958;4.540;2022-09-09T00:39:31;10.83;;;9.73;;
13303;SDS011;6720;51.958;4.540;2022-09-09T00:42:03;12.83;;;9.50;;
13303;SDS011;6720;51.958;4.540;2022-09-09T00:44:39;11.90;;;9.30;;
13303;SDS011;6720;51.958;4.540;2022-09-09T00:55:27;11.43;;;9.40;;
13303;SDS011;6720;51.958;4.540;2022-09-09T00:58:07;14.67;;;9.83;;
13303;SDS011;6720;51.958;4.540;2022-09-09T01:00:52;12.47;;;10.10;;
13303;SDS011;6720;51.958;4.540;2022-09-09T01:06:02;14.17;;;9.97;;
13303;SDS011;6720;51.958;4.540;2022-09-09T01:11:32;11.80;;;9.73;;
13303;SDS011;6720;51.958;4.540;2022-09-09T01:16:56;10.63;;;9.00;;
13303;SDS011;6720;51.958;4.540;2022-09-09T01:20:12;13.03;;;9.73;;
13303;SDS011;6720;51.958;4.540;2022-09-09T01:22:23;12.13;;;9.00;;
13303;SDS011;6720;51.958;4.540;2022-09-09T01:25:11;10.93;;;9.07;;
13303;SDS011;6720;51.958;4.540;2022-09-09T01:27:57;13.10;;;8.50;;
13303;SDS011;6720;51.958;4.540;2022-09-09T01:30:59;13.63;;;8.40;;
13303;SDS011;6720;51.958;4.540;2022-09-09T01:33:52;9.27;;;7.97;;
13303;SDS011;6720;51.958;4.540;2022-09-09T01:36:57;10.63;;;8.33;;
13303;SDS011;6720;51.958;4.540;2022-09-09T01:40:00;11.43;;;7.90;;
13303;SDS011;6720;51.958;4.540;2022-09-09T02:33:28;7.30;;;4.70;;
13303;SDS011;6720;51.958;4.540;2022-09-09T02:36:00;8.00;;;4.87;;
13303;SDS011;6720;51.958;4.540;2022-09-09T02:38:42;10.07;;;5.20;;
13303;SDS011;6720;51.958;4.540;2022-09-09T02:41:26;10.10;;;5.77;;
13303;SDS011;6720;51.958;4.540;2022-09-09T02:43:56;6.40;;;5.40;;
13303;SDS011;6720;51.958;4.540;2022-09-09T02:46:32;9.93;;;6.60;;
13303;SDS011;6720;51.958;4.540;2022-09-09T02:49:09;8.87;;;6.43;;
13303;SDS011;6720;51.958;4.540;2022-09-09T02:54:32;8.33;;;5.93;;
13303;SDS011;6720;51.958;4.540;2022-09-09T02:57:11;9.33;;;6.20;;
13303;SDS011;6720;51.958;4.540;2022-09-09T02:59:41;10.33;;;6.50;;
13303;SDS011;6720;51.958;4.540;2022-09-09T03:02:09;12.37;;;6.13;;
13303;SDS011;6720;51.958;4.540;2022-09-09T03:04:36;8.10;;;5.90;;
13303;SDS011;6720;51.958;4.540;2022-09-09T03:07:02;8.90;;;6.37;;
13303;SDS011;6720;51.958;4.540;2022-09-09T03:09:28;8.90;;;6.10;;
13303;SDS011;6720;51.958;4.540;2022-09-09T03:11:54;8.33;;;6.13;;
13303;SDS011;6720;51.958;4.540;2022-09-09T03:14:20;8.63;;;5.47;;
13303;SDS011;6720;51.958;4.540;2022-09-09T03:16:49;7.90;;;5.97;;
13303;SDS011;6720;51.958;4.540;2022-09-09T03:19:15;10.10;;;5.57;;
13303;SDS011;6720;51.958;4.540;2022-09-09T03:21:41;7.47;;;5.17;;
13303;SDS011;6720;51.958;4.540;2022-09-09T03:24:06;7.13;;;4.53;;
13303;SDS011;6720;51.958;4.540;2022-09-09T03:26:31;11.33;;;5.23;;
13303;SDS011;6720;51.958;4.540;2022-09-09T03:28:57;7.07;;;4.50;;
13303;SDS011;6720;51.958;4.540;2022-09-09T03:31:25;7.47;;;5.07;;
13303;SDS011;6720;51.958;4.540;2022-09-09T03:33:51;7.40;;;5.07;;
13303;SDS011;6720;51.958;4.540;2022-09-09T03:36:16;8.47;;;4.50;;
13303;SDS011;6720;51.958;4.540;2022-09-09T03:38:41;8.40;;;4.43;;
13303;SDS011;6720;51.958;4.540;2022-09-09T03:41:07;11.27;;;4.97;;
13303;SDS011;6720;51.958;4.540;2022-09-09T03:43:33;7.53;;;4.77;;
13303;SDS011;6720;51.958;4.540;2022-09-09T03:45:58;8.07;;;4.50;;
13303;SDS011;6720;51.958;4.540;2022-09-09T03:48:24;9.37;;;4.87;;
13303;SDS011;6720;51.958;4.540;2022-09-09T03:50:51;6.30;;;4.67;;
13303;SDS011;6720;51.958;4.540;2022-09-09T03:53:18;8.70;;;5.10;;
13303;SDS011;6720;51.958;4.540;2022-09-09T03:55:45;6.63;;;4.70;;
13303;SDS011;6720;51.958;4.540;2022-09-09T03:58:15;9.40;;;4.83;;
13303;SDS011;6720;51.958;4.540;2022-09-09T04:00:41;8.00;;;4.67;;
13303;SDS011;6720;51.958;4.540;2022-09-09T04:03:10;5.60;;;4.30;;
13303;SDS011;6720;51.958;4.540;2022-09-09T04:05:36;7.27;;;4.10;;
13303;SDS011;6720;51.958;4.540;2022-09-09T04:08:05;8.83;;;4.60;;
13303;SDS011;6720;51.958;4.540;2022-09-09T04:10:33;8.77;;;4.03;;
13303;SDS011;6720;51.958;4.540;2022-09-09T04:13:01;8.43;;;3.97;;
13303;SDS011;6720;51.958;4.540;2022-09-09T04:15:27;8.73;;;4.07;;
13303;SDS011;6720;51.958;4.540;2022-09-09T04:17:53;6.73;;;4.00;;
13303;SDS011;6720;51.958;4.540;2022-09-09T04:20:18;10.70;;;4.90;;
13303;SDS011;6720;51.958;4.540;2022-09-09T04:22:44;7.53;;;4.13;;
13303;SDS011;6720;51.958;4.540;2022-09-09T04:25:09;9.57;;;4.00;;
13303;SDS011;6720;51.958;4.540;2022-09-09T04:27:35;7.90;;;4.37;;
13303;SDS011;6720;51.958;4.540;2022-09-09T04:30:00;8.80;;;4.00;;
13303;SDS011;6720;51.958;4.540;2022-09-09T04:32:25;9.63;;;4.63;;
13303;SDS011;6720;51.958;4.540;2022-09-09T04:34:53;6.27;;;3.70;;
13303;SDS011;6720;51.958;4.540;2022-09-09T04:37:19;8.00;;;4.17;;
13303;SDS011;6720;51.958;4.540;2022-09-09T04:39:44;5.97;;;4.17;;
13303;SDS011;6720;51.958;4.540;2022-09-09T04:42:10;8.90;;;4.00;;
13303;SDS011;6720;51.958;4.540;2022-09-09T04:44:38;6.67;;;3.90;;
13303;SDS011;6720;51.958;4.540;2022-09-09T04:47:05;7.47;;;4.10;;
13303;SDS011;6720;51.958;4.540;2022-09-09T04:49:31;7.03;;;4.63;;
13303;SDS011;6720;51.958;4.540;2022-09-09T04:51:56;10.43;;;4.33;;
13303;SDS011;6720;51.958;4.540;2022-09-09T04:54:21;8.03;;;4.47;;
13303;SDS011;6720;51.958;4.540;2022-09-09T04:56:47;7.80;;;4.37;;
13303;SDS011;6720;51.958;4.540;2022-09-09T04:59:12;10.47;;;4.67;;
13303;SDS011;6720;51.958;4.540;2022-09-09T05:01:38;7.77;;;4.30;;
13303;SDS011;6720;51.958;4.540;2022-09-09T05:04:03;8.13;;;4.07;;
13303;SDS011;6720;51.958;4.540;2022-09-09T05:06:28;7.10;;;4.13;;
13303;SDS011;6720;51.958;4.540;2022-09-09T05:08:56;7.70;;;4.20;;
13303;SDS011;6720;51.958;4.540;2022-09-09T05:11:24;7.60;;;4.40;;
13303;SDS011;6720;51.958;4.540;2022-09-09T05:13:51;7.67;;;4.10;;
13303;SDS011;6720;51.958;4.540;2022-09-09T05:16:16;6.90;;;4.10;;
13303;SDS011;6720;51.958;4.540;2022-09-09T05:18:43;9.67;;;4.60;;
13303;SDS011;6720;51.958;4.540;2022-09-09T05:21:09;11.53;;;4.00;;
13303;SDS011;6720;51.958;4.540;2022-09-09T05:23:38;8.90;;;4.10;;
13303;SDS011;6720;51.958;4.540;2022-09-09T05:26:04;6.97;;;4.30;;
13303;SDS011;6720;51.958;4.540;2022-09-09T05:28:30;8.07;;;4.67;;
13303;SDS011;6720;51.958;4.540;2022-09-09T05:30:59;9.40;;;4.10;;
13303;SDS011;6720;51.958;4.540;2022-09-09T05:33:28;10.57;;;4.30;;
13303;SDS011;6720;51.958;4.540;2022-09-09T05:35:58;10.20;;;4.50;;
13303;SDS011;6720;51.958;4.540;2022-09-09T05:38:24;7.40;;;3.87;;
13303;SDS011;6720;51.958;4.540;2022-09-09T05:40:50;10.20;;;4.70;;
13303;SDS011;6720;51.958;4.540;2022-09-09T05:43:17;11.93;;;4.80;;
13303;SDS011;6720;51.958;4.540;2022-09-09T05:45:46;7.27;;;4.43;;
13303;SDS011;6720;51.958;4.540;2022-09-09T05:48:15;7.13;;;4.07;;
13303;SDS011;6720;51.958;4.540;2022-09-09T05:50:41;7.30;;;4.23;;
13303;SDS011;6720;51.958;4.540;2022-09-09T05:53:08;12.57;;;4.70;;
13303;SDS011;6720;51.958;4.540;2022-09-09T05:55:34;10.20;;;3.93;;
13303;SDS011;6720;51.958;4.540;2022-09-09T05:57:59;6.73;;;3.77;;
13303;SDS011;6720;51.958;4.540;2022-09-09T06:00:24;9.17;;;4.20;;
13303;SDS011;6720;51.958;4.540;2022-09-09T06:02:51;10.87;;;4.50;;
13303;SDS011;6720;51.958;4.540;2022-09-09T06:05:17;13.87;;;4.73;;
13303;SDS011;6720;51.958;4.540;2022-09-09T06:07:43;6.73;;;3.90;;
13303;SDS011;6720;51.958;4.540;2022-09-09T06:10:09;11.97;;;4.17;;
13303;SDS011;6720;51.958;4.540;2022-09-09T06:12:35;9.77;;;4.27;;
13303;SDS011;6720;51.958;4.540;2022-09-09T06:15:01;7.67;;;4.13;;
13303;SDS011;6720;51.958;4.540;2022-09-09T06:17:26;8.00;;;3.63;;
13303;SDS011;6720;51.958;4.540;2022-09-09T06:19:52;9.70;;;4.03;;
13303;SDS011;6720;51.958;4.540;2022-09-09T06:22:17;7.50;;;3.93;;
13303;SDS011;6720;51.958;4.540;2022-09-09T06:24:43;6.13;;;3.77;;
13303;SDS011;6720;51.958;4.540;2022-09-09T06:27:09;10.63;;;3.80;;
13303;SDS011;6720;51.958;4.540;2022-09-09T06:29:35;9.33;;;4.03;;
13303;SDS011;6720;51.958;4.540;2022-09-09T06:32:01;14.43;;;4.37;;
13303;SDS011;6720;51.958;4.540;2022-09-09T06:34:28;8.87;;;4.10;;
13303;SDS011;6720;51.958;4.540;2022-09-09T06:36:53;8.50;;;3.93;;
13303;SDS011;6720;51.958;4.540;2022-09-09T06:39:18;7.17;;;4.10;;
13303;SDS011;6720;51.958;4.540;2022-09-09T06:41:44;7.87;;;3.90;;
13303;SDS011;6720;51.958;4.540;2022-09-09T06:44:09;10.00;;;4.37;;
13303;SDS011;6720;51.958;4.540;2022-09-09T06:46:36;12.37;;;4.23;;
13303;SDS011;6720;51.958;4.540;2022-09-09T06:49:03;10.00;;;4.77;;
13303;SDS011;6720;51.958;4.540;2022-09-09T06:51:33;8.00;;;4.13;;
13303;SDS011;6720;51.958;4.540;2022-09-09T06:54:00;10.80;;;4.60;;
13303;SDS011;6720;51.958;4.540;2022-09-09T06:56:28;11.17;;;4.73;;
13303;SDS011;6720;51.958;4.540;2022-09-09T06:58:56;11.53;;;5.20;;
13303;SDS011;6720;51.958;4.540;2022-09-09T07:01:29;10.23;;;4.73;;
13303;SDS011;6720;51.958;4.540;2022-09-09T07:03:56;7.73;;;4.57;;
13303;SDS011;6720;51.958;4.540;2022-09-09T07:09:18;10.37;;;4.43;;
13303;SDS011;6720;51.958;4.540;2022-09-09T07:11:45;10.57;;;5.10;;
13303;SDS011;6720;51.958;4.540;2022-09-09T07:14:13;10.70;;;4.97;;
13303;SDS011;6720;51.958;4.540;2022-09-09T07:16:43;9.57;;;4.97;;
13303;SDS011;6720;51.958;4.540;2022-09-09T07:19:09;11.20;;;5.20;;
13303;SDS011;6720;51.958;4.540;2022-09-09T07:21:36;8.10;;;5.00;;
13303;SDS011;6720;51.958;4.540;2022-09-09T07:24:01;9.33;;;4.90;;
13303;SDS011;6720;51.958;4.540;2022-09-09T07:26:28;7.90;;;5.70;;
13303;SDS011;6720;51.958;4.540;2022-09-09T07:28:55;9.67;;;5.80;;
13303;SDS011;6720;51.958;4.540;2022-09-09T07:31:25;11.40;;;5.70;;
13303;SDS011;6720;51.958;4.540;2022-09-09T07:33:52;9.70;;;5.90;;
13303;SDS011;6720;51.958;4.540;2022-09-09T07:38:51;8.13;;;5.40;;
13303;SDS011;6720;51.958;4.540;2022-09-09T07:41:28;10.83;;;5.43;;
13303;SDS011;6720;51.958;4.540;2022-09-09T07:43:57;8.93;;;5.57;;
13303;SDS011;6720;51.958;4.540;2022-09-09T07:46:24;8.43;;;5.00;;
13303;SDS011;6720;51.958;4.540;2022-09-09T07:48:51;10.87;;;5.23;;
13303;SDS011;6720;51.958;4.540;2022-09-09T07:51:22;8.50;;;5.40;;
13303;SDS011;6720;51.958;4.540;2022-09-09T07:53:53;9.17;;;5.73;;
13303;SDS011;6720;51.958;4.540;2022-09-09T07:56:21;9.50;;;5.03;;
13303;SDS011;6720;51.958;4.540;2022-09-09T07:58:48;9.60;;;5.90;;
13303;SDS011;6720;51.958;4.540;2022-09-09T08:01:15;8.40;;;5.40;;
13303;SDS011;6720;51.958;4.540;2022-09-09T08:04:07;7.17;;;5.60;;
13303;SDS011;6720;51.958;4.540;2022-09-09T08:06:35;11.07;;;5.50;;
13303;SDS011;6720;51.958;4.540;2022-09-09T08:09:02;10.17;;;5.60;;
13303;SDS011;6720;51.958;4.540;2022-09-09T08:11:28;12.80;;;5.80;;
13303;SDS011;6720;51.958;4.540;2022-09-09T08:13:55;8.97;;;5.23;;
13303;SDS011;6720;51.958;4.540;2022-09-09T08:16:24;6.80;;;4.97;;
13303;SDS011;6720;51.958;4.540;2022-09-09T08:18:52;8.80;;;5.10;;
13303;SDS011;6720;51.958;4.540;2022-09-09T08:21:21;9.80;;;5.50;;
13303;SDS011;6720;51.958;4.540;2022-09-09T08:23:54;8.30;;;4.87;;
13303;SDS011;6720;51.958;4.540;2022-09-09T08:26:21;9.63;;;5.10;;
13303;SDS011;6720;51.958;4.540;2022-09-09T08:28:52;14.13;;;9.03;;
13303;SDS011;6720;51.958;4.540;2022-09-09T08:31:20;11.90;;;6.30;;
13303;SDS011;6720;51.958;4.540;2022-09-09T08:33:47;9.43;;;6.33;;
13303;SDS011;6720;51.958;4.540;2022-09-09T08:36:17;12.97;;;5.00;;
13303;SDS011;6720;51.958;4.540;2022-09-09T08:38:51;9.03;;;5.50;;
13303;SDS011;6720;51.958;4.540;2022-09-09T08:52:54;8.83;;;4.70;;
13303;SDS011;6720;51.958;4.540;2022-09-09T08:58:00;9.70;;;5.20;;
13303;SDS011;6720;51.958;4.540;2022-09-09T09:00:40;9.40;;;5.90;;
13303;SDS011;6720;51.958;4.540;2022-09-09T09:06:23;11.73;;;6.17;;
13303;SDS011;6720;51.958;4.540;2022-09-09T09:11:56;12.00;;;5.60;;
13303;SDS011;6720;51.958;4.540;2022-09-09T09:14:30;9.17;;;5.20;;
13303;SDS011;6720;51.958;4.540;2022-09-09T09:17:16;11.77;;;6.00;;
13303;SDS011;6720;51.958;4.540;2022-09-09T09:19:47;7.33;;;4.77;;
13303;SDS011;6720;51.958;4.540;2022-09-09T09:22:16;12.33;;;5.10;;
13303;SDS011;6720;51.958;4.540;2022-09-09T09:27:38;12.87;;;5.60;;
13303;SDS011;6720;51.958;4.540;2022-09-09T09:30:14;10.30;;;5.40;;
13303;SDS011;6720;51.958;4.540;2022-09-09T09:32:44;13.27;;;5.80;;
13303;SDS011;6720;51.958;4.540;2022-09-09T09:35:23;10.67;;;5.53;;
13303;SDS011;6720;51.958;4.540;2022-09-09T09:37:49;12.43;;;6.13;;
13303;SDS011;6720;51.958;4.540;2022-09-09T09:40:15;11.60;;;5.83;;
13303;SDS011;6720;51.958;4.540;2022-09-09T09:42:53;11.23;;;5.90;;
13303;SDS011;6720;51.958;4.540;2022-09-09T09:45:26;12.57;;;6.23;;
13303;SDS011;6720;51.958;4.540;2022-09-09T09:47:59;10.37;;;5.43;;
13303;SDS011;6720;51.958;4.540;2022-09-09T09:50:29;8.07;;;5.27;;
13303;SDS011;6720;51.958;4.540;2022-09-09T09:52:58;8.23;;;4.90;;
13303;SDS011;6720;51.958;4.540;2022-09-09T09:55:25;9.97;;;5.20;;
13303;SDS011;6720;51.958;4.540;2022-09-09T09:57:52;9.27;;;4.70;;
13303;SDS011;6720;51.958;4.540;2022-09-09T10:02:46;7.93;;;5.13;;
13303;SDS011;6720;51.958;4.540;2022-09-09T10:05:14;8.43;;;4.57;;
13303;SDS011;6720;51.958;4.540;2022-09-09T10:07:45;8.77;;;4.53;;
13303;SDS011;6720;51.958;4.540;2022-09-09T10:10:15;8.47;;;4.77;;
13303;SDS011;6720;51.958;4.540;2022-09-09T10:32:41;9.40;;;4.93;;
13303;SDS011;6720;51.958;4.540;2022-09-09T10:38:30;7.93;;;4.50;;
13303;SDS011;6720;51.958;4.540;2022-09-09T10:41:06;7.30;;;4.43;;
13303;SDS011;6720;51.958;4.540;2022-09-09T10:43:44;9.23;;;4.70;;
13303;SDS011;6720;51.958;4.540;2022-09-09T10:55:40;8.40;;;5.33;;
13303;SDS011;6720;51.958;4.540;2022-09-09T10:58:20;12.13;;;5.43;;
13303;SDS011;6720;51.958;4.540;2022-09-09T11:00:59;9.70;;;5.63;;
13303;SDS011;6720;51.958;4.540;2022-09-09T11:03:34;10.47;;;5.63;;
13303;SDS011;6720;51.958;4.540;2022-09-09T11:06:04;8.13;;;5.33;;
13303;SDS011;6720;51.958;4.540;2022-09-09T11:08:34;7.53;;;6.10;;
13303;SDS011;6720;51.958;4.540;2022-09-09T11:11:11;11.67;;;6.00;;
13303;SDS011;6720;51.958;4.540;2022-09-09T11:13:44;7.77;;;5.90;;
13303;SDS011;6720;51.958;4.540;2022-09-09T11:19:04;9.27;;;5.87;;
13303;SDS011;6720;51.958;4.540;2022-09-09T11:21:48;8.63;;;5.70;;
13303;SDS011;6720;51.958;4.540;2022-09-09T11:27:15;6.27;;;5.60;;
13303;SDS011;6720;51.958;4.540;2022-09-09T11:40:43;8.07;;;4.87;;
13303;SDS011;6720;51.958;4.540;2022-09-09T11:43:13;6.57;;;5.17;;
13303;SDS011;6720;51.958;4.540;2022-09-09T11:45:42;6.87;;;4.70;;
13303;SDS011;6720;51.958;4.540;2022-09-09T11:48:57;6.97;;;4.40;;
13303;SDS011;6720;51.958;4.540;2022-09-09T11:53:55;11.47;;;5.73;;
13303;SDS011;6720;51.958;4.540;2022-09-09T11:56:32;8.23;;;5.00;;
13303;SDS011;6720;51.958;4.540;2022-09-09T12:01:44;12.27;;;6.30;;
13303;SDS011;6720;51.958;4.540;2022-09-09T12:06:57;8.40;;;6.43;;
13303;SDS011;6720;51.958;4.540;2022-09-09T12:09:45;15.23;;;7.63;;
13303;SDS011;6720;51.958;4.540;2022-09-09T12:19:39;11.57;;;7.10;;
13303;SDS011;6720;51.958;4.540;2022-09-09T12:22:26;11.07;;;6.70;;
13303;SDS011;6720;51.958;4.540;2022-09-09T12:28:02;18.23;;;8.13;;
13303;SDS011;6720;51.958;4.540;2022-09-09T12:30:55;13.33;;;5.90;;
13303;SDS011;6720;51.958;4.540;2022-09-09T12:33:23;8.57;;;5.70;;
13303;SDS011;6720;51.958;4.540;2022-09-09T12:35:56;9.00;;;5.80;;
13303;SDS011;6720;51.958;4.540;2022-09-09T12:38:31;9.77;;;6.30;;
13303;SDS011;6720;51.958;4.540;2022-09-09T12:40:59;6.40;;;5.40;;
13303;SDS011;6720;51.958;4.540;2022-09-09T12:43:26;6.80;;;5.40;;
13303;SDS011;6720;51.958;4.540;2022-09-09T12:45:56;11.00;;;6.20;;
13303;SDS011;6720;51.958;4.540;2022-09-09T12:48:28;9.43;;;5.83;;
13303;SDS011;6720;51.958;4.540;2022-09-09T12:51:01;7.77;;;5.67;;
13303;SDS011;6720;51.958;4.540;2022-09-09T12:53:35;7.20;;;5.53;;
13303;SDS011;6720;51.958;4.540;2022-09-09T12:58:35;7.77;;;5.37;;
13303;SDS011;6720;51.958;4.540;2022-09-09T13:01:03;6.40;;;5.63;;
13303;SDS011;6720;51.958;4.540;2022-09-09T13:03:30;7.43;;;4.37;;
13303;SDS011;6720;51.958;4.540;2022-09-09T13:05:58;6.40;;;4.40;;
13303;SDS011;6720;51.958;4.540;2022-09-09T13:08:34;5.73;;;4.23;;
13303;SDS011;6720;51.958;4.540;2022-09-09T13:11:00;6.57;;;4.00;;
13303;SDS011;6720;51.958;4.540;2022-09-09T13:13:30;6.37;;;4.63;;
13303;SDS011;6720;51.958;4.540;2022-09-09T13:16:07;5.20;;;3.50;;
13303;SDS011;6720;51.958;4.540;2022-09-09T13:18:45;4.77;;;3.50;;
13303;SDS011;6720;51.958;4.540;2022-09-09T13:21:11;5.03;;;3.37;;
13303;SDS011;6720;51.958;4.540;2022-09-09T13:23:37;5.90;;;3.13;;
13303;SDS011;6720;51.958;4.540;2022-09-09T13:26:06;3.80;;;3.27;;
13303;SDS011;6720;51.958;4.540;2022-09-09T13:28:48;5.97;;;3.23;;
13303;SDS011;6720;51.958;4.540;2022-09-09T13:31:27;4.63;;;3.40;;
13303;SDS011;6720;51.958;4.540;2022-09-09T13:33:57;4.07;;;3.20;;
13303;SDS011;6720;51.958;4.540;2022-09-09T13:36:29;5.83;;;3.50;;
13303;SDS011;6720;51.958;4.540;2022-09-09T13:38:57;6.13;;;3.20;;
13303;SDS011;6720;51.958;4.540;2022-09-09T13:41:32;8.53;;;3.50;;
13303;SDS011;6720;51.958;4.540;2022-09-09T13:49:17;6.37;;;3.50;;
13303;SDS011;6720;51.958;4.540;2022-09-09T13:51:51;5.07;;;2.63;;
13303;SDS011;6720;51.958;4.540;2022-09-09T13:54:29;4.37;;;2.87;;
13303;SDS011;6720;51.958;4.540;2022-09-09T13:56:55;5.33;;;2.80;;
13303;SDS011;6720;51.958;4.540;2022-09-09T14:01:46;6.70;;;2.80;;
13303;SDS011;6720;51.958;4.540;2022-09-09T14:04:12;7.00;;;3.27;;
13303;SDS011;6720;51.958;4.540;2022-09-09T14:06:38;5.33;;;3.23;;
13303;SDS011;6720;51.958;4.540;2022-09-09T14:09:05;5.80;;;3.00;;
13303;SDS011;6720;51.958;4.540;2022-09-09T14:11:32;6.97;;;3.20;;
13303;SDS011;6720;51.958;4.540;2022-09-09T14:13:58;6.07;;;3.53;;
13303;SDS011;6720;51.958;4.540;2022-09-09T14:16:26;5.13;;;3.13;;
13303;SDS011;6720;51.958;4.540;2022-09-09T14:18:52;5.30;;;3.47;;
13303;SDS011;6720;51.958;4.540;2022-09-09T14:21:18;5.73;;;3.87;;
13303;SDS011;6720;51.958;4.540;2022-09-09T14:23:43;5.87;;;3.67;;
13303;SDS011;6720;51.958;4.540;2022-09-09T14:26:09;6.53;;;3.90;;
13303;SDS011;6720;51.958;4.540;2022-09-09T14:28:35;6.77;;;3.80;;
13303;SDS011;6720;51.958;4.540;2022-09-09T14:31:02;4.83;;;3.63;;
13303;SDS011;6720;51.958;4.540;2022-09-09T14:33:30;7.23;;;4.13;;
13303;SDS011;6720;51.958;4.540;2022-09-09T14:35:59;6.07;;;3.93;;
13303;SDS011;6720;51.958;4.540;2022-09-09T14:38:29;4.27;;;3.67;;
13303;SDS011;6720;51.958;4.540;2022-09-09T14:40:56;5.37;;;3.30;;
13303;SDS011;6720;51.958;4.540;2022-09-09T14:43:23;9.70;;;4.00;;
13303;SDS011;6720;51.958;4.540;2022-09-09T14:45:48;5.33;;;3.37;;
13303;SDS011;6720;51.958;4.540;2022-09-09T14:48:15;5.40;;;3.23;;
13303;SDS011;6720;51.958;4.540;2022-09-09T14:50:40;7.07;;;3.00;;
13303;SDS011;6720;51.958;4.540;2022-09-09T14:53:06;5.27;;;3.03;;
13303;SDS011;6720;51.958;4.540;2022-09-09T14:55:33;3.83;;;2.33;;
13303;SDS011;6720;51.958;4.540;2022-09-09T14:57:59;6.60;;;2.50;;
13303;SDS011;6720;51.958;4.540;2022-09-09T15:00:24;5.20;;;2.50;;
13303;SDS011;6720;51.958;4.540;2022-09-09T15:02:53;5.53;;;2.43;;
13303;SDS011;6720;51.958;4.540;2022-09-09T15:05:19;5.63;;;2.43;;
13303;SDS011;6720;51.958;4.540;2022-09-09T15:07:44;4.33;;;2.10;;
13303;SDS011;6720;51.958;4.540;2022-09-09T15:10:10;6.17;;;2.60;;
13303;SDS011;6720;51.958;4.540;2022-09-09T15:12:36;4.30;;;2.00;;
13303;SDS011;6720;51.958;4.540;2022-09-09T15:15:02;2.90;;;2.00;;
13303;SDS011;6720;51.958;4.540;2022-09-09T15:17:28;3.67;;;2.23;;
13303;SDS011;6720;51.958;4.540;2022-09-09T15:19:53;3.63;;;2.00;;
13303;SDS011;6720;51.958;4.540;2022-09-09T15:22:19;7.97;;;2.30;;
13303;SDS011;6720;51.958;4.540;2022-09-09T15:24:45;5.80;;;2.40;;
13303;SDS011;6720;51.958;4.540;2022-09-09T15:27:10;3.90;;;2.10;;
13303;SDS011;6720;51.958;4.540;2022-09-09T15:29:36;8.10;;;2.60;;
13303;SDS011;6720;51.958;4.540;2022-09-09T15:32:03;3.60;;;2.50;;
13303;SDS011;6720;51.958;4.540;2022-09-09T15:34:28;4.80;;;2.53;;
13303;SDS011;6720;51.958;4.540;2022-09-09T15:36:54;3.97;;;3.03;;
13303;SDS011;6720;51.958;4.540;2022-09-09T15:39:20;5.23;;;3.40;;
13303;SDS011;6720;51.958;4.540;2022-09-09T15:41:47;7.53;;;3.50;;
13303;SDS011;6720;51.958;4.540;2022-09-09T15:44:14;6.80;;;4.20;;
13303;SDS011;6720;51.958;4.540;2022-09-09T15:46:49;8.10;;;4.50;;
13303;SDS011;6720;51.958;4.540;2022-09-09T15:49:19;7.17;;;4.17;;
13303;SDS011;6720;51.958;4.540;2022-09-09T15:51:51;7.37;;;4.47;;
13303;SDS011;6720;51.958;4.540;2022-09-09T15:54:21;7.77;;;4.87;;
13303;SDS011;6720;51.958;4.540;2022-09-09T15:56:56;9.37;;;5.20;;
13303;SDS011;6720;51.958;4.540;2022-09-09T15:59:23;9.20;;;5.00;;
13303;SDS011;6720;51.958;4.540;2022-09-09T16:01:49;8.80;;;5.73;;
13303;SDS011;6720;51.958;4.540;2022-09-09T16:04:16;7.87;;;5.67;;
13303;SDS011;6720;51.958;4.540;2022-09-09T16:06:54;9.73;;;6.50;;
13303;SDS011;6720;51.958;4.540;2022-09-09T16:09:26;8.20;;;6.77;;
13303;SDS011;6720;51.958;4.540;2022-09-09T16:12:02;8.23;;;5.70;;
13303;SDS011;6720;51.958;4.540;2022-09-09T16:14:40;11.00;;;6.10;;
13303;SDS011;6720;51.958;4.540;2022-09-09T16:17:08;8.03;;;5.50;;
13303;SDS011;6720;51.958;4.540;2022-09-09T16:19:33;8.87;;;6.53;;
13303;SDS011;6720;51.958;4.540;2022-09-09T16:21:59;7.93;;;6.00;;
13303;SDS011;6720;51.958;4.540;2022-09-09T16:24:25;6.40;;;5.13;;
13303;SDS011;6720;51.958;4.540;2022-09-09T16:26:51;9.73;;;6.00;;
13303;SDS011;6720;51.958;4.540;2022-09-09T16:29:18;8.83;;;5.57;;
13303;SDS011;6720;51.958;4.540;2022-09-09T16:31:45;9.00;;;6.20;;
13303;SDS011;6720;51.958;4.540;2022-09-09T16:34:11;7.93;;;5.60;;
13303;SDS011;6720;51.958;4.540;2022-09-09T16:36:38;12.63;;;7.90;;
13303;SDS011;6720;51.958;4.540;2022-09-09T16:39:06;9.67;;;6.77;;
13303;SDS011;6720;51.958;4.540;2022-09-09T16:41:36;10.07;;;5.97;;
13303;SDS011;6720;51.958;4.540;2022-09-09T16:44:03;36.13;;;23.67;;
13303;SDS011;6720;51.958;4.540;2022-09-09T16:46:31;9.87;;;6.40;;
13303;SDS011;6720;51.958;4.540;2022-09-09T16:49:00;6.47;;;5.20;;
13303;SDS011;6720;51.958;4.540;2022-09-09T16:51:30;8.80;;;6.07;;
13303;SDS011;6720;51.958;4.540;2022-09-09T16:53:58;8.70;;;6.57;;
13303;SDS011;6720;51.958;4.540;2022-09-09T16:56:26;10.67;;;7.00;;
13303;SDS011;6720;51.958;4.540;2022-09-09T16:58:57;9.57;;;6.27;;
13303;SDS011;6720;51.958;4.540;2022-09-09T17:01:24;8.43;;;5.70;;
13303;SDS011;6720;51.958;4.540;2022-09-09T17:03:58;7.67;;;5.93;;
13303;SDS011;6720;51.958;4.540;2022-09-09T17:06:26;10.13;;;6.33;;
13303;SDS011;6720;51.958;4.540;2022-09-09T17:08:58;7.87;;;5.87;;
13303;SDS011;6720;51.958;4.540;2022-09-09T17:11:28;7.87;;;5.87;;
13303;SDS011;6720;51.958;4.540;2022-09-09T17:13:54;9.00;;;6.50;;
13303;SDS011;6720;51.958;4.540;2022-09-09T17:16:22;17.00;;;13.17;;
13303;SDS011;6720;51.958;4.540;2022-09-09T17:18:49;9.53;;;6.33;;
13303;SDS011;6720;51.958;4.540;2022-09-09T17:21:17;10.63;;;6.33;;
13303;SDS011;6720;51.958;4.540;2022-09-09T17:23:44;11.60;;;6.20;;
13303;SDS011;6720;51.958;4.540;2022-09-09T17:26:11;8.17;;;6.10;;
13303;SDS011;6720;51.958;4.540;2022-09-09T17:28:39;10.33;;;6.00;;
13303;SDS011;6720;51.958;4.540;2022-09-09T17:31:16;11.70;;;5.87;;
13303;SDS011;6720;51.958;4.540;2022-09-09T17:34:13;7.90;;;5.07;;
13303;SDS011;6720;51.958;4.540;2022-09-09T17:37:13;6.90;;;5.40;;
13303;SDS011;6720;51.958;4.540;2022-09-09T17:40:06;8.33;;;4.67;;
13303;SDS011;6720;51.958;4.540;2022-09-09T17:42:32;13.17;;;6.93;;
13303;SDS011;6720;51.958;4.540;2022-09-09T17:44:57;10.10;;;5.37;;
13303;SDS011;6720;51.958;4.540;2022-09-09T17:47:26;12.27;;;8.17;;
13303;SDS011;6720;51.958;4.540;2022-09-09T17:49:55;12.53;;;6.80;;
13303;SDS011;6720;51.958;4.540;2022-09-09T17:52:21;8.40;;;5.33;;
13303;SDS011;6720;51.958;4.540;2022-09-09T17:54:46;9.83;;;5.70;;
13303;SDS011;6720;51.958;4.540;2022-09-09T17:57:11;7.73;;;4.37;;
13303;SDS011;6720;51.958;4.540;2022-09-09T17:59:37;6.50;;;4.50;;
13303;SDS011;6720;51.958;4.540;2022-09-09T18:02:02;5.70;;;4.33;;
13303;SDS011;6720;51.958;4.540;2022-09-09T18:04:29;6.07;;;3.50;;
13303;SDS011;6720;51.958;4.540;2022-09-09T18:06:55;7.77;;;4.10;;
13303;SDS011;6720;51.958;4.540;2022-09-09T18:09:23;9.30;;;4.50;;
13303;SDS011;6720;51.958;4.540;2022-09-09T18:11:51;9.00;;;3.80;;
13303;SDS011;6720;51.958;4.540;2022-09-09T18:14:19;8.17;;;4.57;;
13303;SDS011;6720;51.958;4.540;2022-09-09T18:16:47;7.03;;;4.07;;
13303;SDS011;6720;51.958;4.540;2022-09-09T18:19:14;8.17;;;4.53;;
13303;SDS011;6720;51.958;4.540;2022-09-09T18:21:42;7.97;;;4.37;;
13303;SDS011;6720;51.958;4.540;2022-09-09T18:24:09;7.87;;;4.23;;